Observation data for Northfield on 12/08/2018      Previous  Date       Current Mesonet Observations  Soil Data  Daily Summary Page  Observations in Plain Language
KNOR 080600Z 01007KT M01/M01 A3034 RMK A01 T10061012  RH  096%=      5-min Rain = 0
KNOR 080605Z 01009KT M01/M01 A3033 RMK A01 T10061012  RH  096%=      5-min Rain = 0
KNOR 080610Z 00008KT M01/M01 A3033 RMK A01 T10061012  RH  096%=      5-min Rain = 0
KNOR 080615Z 00008KT M01/M01 A3033 RMK A01 T10051012  RH  097%=      5-min Rain = 0
KNOR 080620Z 01008KT M01/M01 A3033 RMK A01 T10051012  RH  097%=      5-min Rain = 0
KNOR 080625Z 36007KT M01/M01 A3033 RMK A01 T10051012  RH  097%=      5-min Rain = 0
KNOR 080630Z 01007KT M01/M01 A3033 RMK A01 T10051012  RH  097%=      5-min Rain = 0
KNOR 080635Z 01006KT M01/M01 A3033 RMK A01 T10051011  RH  097%=      5-min Rain = 0
KNOR 080640Z 01008KT M01/M01 A3032 RMK A01 T10051011  RH  097%=      5-min Rain = 0
KNOR 080645Z 01009KT M01/M01 A3032 RMK A01 T10051011  RH  097%=      5-min Rain = 0
KNOR 080650Z 01008KT M01/M01 A3032 RMK A01 T10051011  RH  097%=      5-min Rain = 0
KNOR 080655Z 01007KT M01/M01 A3032 RMK A01 T10051011  RH  097%=      5-min Rain = 0
KNOR 080700Z 01009KT M01/M01 A3031 RMK A01 T10051011  RH  097%=      5-min Rain = 0
KNOR 080705Z 02008KT M01/M01 A3031 RMK A01 T10051011  RH  097%=      5-min Rain = 0
KNOR 080710Z 02008KT M01/M01 A3031 RMK A01 T10051012  RH  097%=      5-min Rain = 0
KNOR 080715Z 02007KT M01/M01 A3031 RMK A01 T10051011  RH  097%=      5-min Rain = 0
KNOR 080720Z 02008KT M01/M01 A3031 RMK A01 T10051011  RH  097%=      5-min Rain = 0
KNOR 080725Z 02007KT M01/M01 A3032 RMK A01 T10051011  RH  097%=      5-min Rain = 0
KNOR 080730Z 02007KT M01/M01 A3032 RMK A01 T10051011  RH  097%=      5-min Rain = 0
KNOR 080735Z 02006KT M00/M01 A3032 RMK A01 T10041010  RH  097%=      5-min Rain = 0
KNOR 080740Z 01008KT M00/M01 A3032 RMK A01 T10041010  RH  097%=      5-min Rain = 0
KNOR 080745Z 02008KT M00/M01 A3032 RMK A01 T10041010  RH  097%=      5-min Rain = 0
KNOR 080750Z 01006KT M00/M01 A3032 RMK A01 T10041010  RH  097%=      5-min Rain = 0
KNOR 080755Z 01005KT M00/M01 A3032 RMK A01 T10031010  RH  097%=      5-min Rain = 0
KNOR 080800Z 00007KT M00/M01 A3032 RMK A01 T10031009  RH  097%=      5-min Rain = 0
KNOR 080805Z 36006KT M00/M01 A3032 RMK A01 T10031009  RH  097%=      5-min Rain = 0
KNOR 080810Z 01007KT M00/M01 A3032 RMK A01 T10031009  RH  097%=      5-min Rain = 0
KNOR 080815Z 00005KT M00/M01 A3032 RMK A01 T10031009  RH  097%=      5-min Rain = 0
KNOR 080820Z 01005KT M00/M01 A3032 RMK A01 T10031009  RH  097%=      5-min Rain = 0
KNOR 080825Z 01005KT M00/M01 A3032 RMK A01 T10031009  RH  097%=      5-min Rain = 0
KNOR 080830Z 01007KT M00/M01 A3032 RMK A01 T10031009  RH  097%=      5-min Rain = 0
KNOR 080835Z 01007KT M00/M01 A3032 RMK A01 T10031009  RH  097%=      5-min Rain = 0
KNOR 080840Z 00008KT M00/M01 A3032 RMK A01 T10031009  RH  097%=      5-min Rain = 0
KNOR 080845Z 02008KT M00/M01 A3032 RMK A01 T10041010  RH  097%=      5-min Rain = 0
KNOR 080850Z 03007KT M01/M01 A3032 RMK A01 T10051011  RH  097%=      5-min Rain = 0
KNOR 080855Z 02006KT M01/M01 A3032 RMK A01 T10051011  RH  097%=      5-min Rain = 0
KNOR 080900Z 03007KT M01/M01 A3032 RMK A01 T10061012  RH  097%=      5-min Rain = 0
KNOR 080905Z 03006KT M01/M01 A3032 RMK A01 T10061012  RH  097%=      5-min Rain = 0
KNOR 080910Z 03007KT M01/M01 A3031 RMK A01 T10061012  RH  097%=      5-min Rain = 0
KNOR 080915Z 02006KT M01/M01 A3031 RMK A01 T10061012  RH  097%=      5-min Rain = 0
KNOR 080920Z 03006KT M01/M01 A3031 RMK A01 T10061012  RH  097%=      5-min Rain = 0
KNOR 080925Z 02006KT M01/M01 A3031 RMK A01 T10061012  RH  097%=      5-min Rain = 0
KNOR 080930Z 02007KT M01/M01 A3031 RMK A01 T10071013  RH  097%=      5-min Rain = 0
KNOR 080935Z 02008KT M01/M02 A303 RMK A01 T10091015  RH  097%=      5-min Rain = 0
KNOR 080940Z 02008KT M01/M02 A303 RMK A01 T10091015  RH  097%=      5-min Rain = 0
KNOR 080945Z 01007KT M01/M02 A303 RMK A01 T10091016  RH  097%=      5-min Rain = 0
KNOR 080950Z 02005KT M01/M02 A303 RMK A01 T10091016  RH  097%=      5-min Rain = 0
KNOR 080955Z 02006KT M01/M02 A303 RMK A01 T10101016  RH  096%=      5-min Rain = 0
KNOR 081000Z 02006KT M01/M02 A303 RMK A01 T10101016  RH  096%=      5-min Rain = 0
KNOR 081005Z 02007KT M01/M02 A303 RMK A01 T10111018  RH  096%=      5-min Rain = 0
KNOR 081010Z 02007KT M01/M02 A303 RMK A01 T10121019  RH  096%=      5-min Rain = 0
KNOR 081015Z 02007KT M01/M02 A303 RMK A01 T10121019  RH  096%=      5-min Rain = 0
KNOR 081020Z 02007KT M01/M02 A303 RMK A01 T10131020  RH  096%=      5-min Rain = 0
KNOR 081025Z 02007KT M01/M02 A303 RMK A01 T10131020  RH  096%=      5-min Rain = 0
KNOR 081030Z 01007KT M01/M02 A303 RMK A01 T10141021  RH  096%=      5-min Rain = 0
KNOR 081035Z 01007KT M01/M02 A303 RMK A01 T10141021  RH  096%=      5-min Rain = 0
KNOR 081040Z 01006KT M01/M02 A3029 RMK A01 T10141021  RH  096%=      5-min Rain = 0
KNOR 081045Z 01006KT M01/M02 A3029 RMK A01 T10141022  RH  096%=      5-min Rain = 0
KNOR 081050Z 01006KT M01/M02 A3029 RMK A01 T10141022  RH  096%=      5-min Rain = 0
KNOR 081055Z 01006KT M01/M02 A3029 RMK A01 T10141021  RH  096%=      5-min Rain = 0
KNOR 081100Z 01005KT M01/M02 A3029 RMK A01 T10141021  RH  096%=      5-min Rain = 0
KNOR 081105Z 01006KT M01/M02 A3029 RMK A01 T10141021  RH  096%=      5-min Rain = 0
KNOR 081110Z 01005KT M01/M02 A3029 RMK A01 T10141021  RH  096%=      5-min Rain = 0
KNOR 081115Z 01006KT M02/M02 A3029 RMK A01 T10151022  RH  096%=      5-min Rain = 0
KNOR 081120Z 01005KT M02/M02 A3029 RMK A01 T10151022  RH  096%=      5-min Rain = 0
KNOR 081125Z 01005KT M02/M02 A3029 RMK A01 T10161022  RH  096%=      5-min Rain = 0
KNOR 081130Z 01004KT M02/M02 A3029 RMK A01 T10151022  RH  096%=      5-min Rain = 0
KNOR 081135Z 01004KT M02/M02 A3029 RMK A01 T10151022  RH  096%=      5-min Rain = 0
KNOR 081140Z 01004KT M02/M02 A303 RMK A01 T10151022  RH  096%=      5-min Rain = 0
KNOR 081145Z 01004KT M02/M02 A303 RMK A01 T10151022  RH  096%=      5-min Rain = 0
KNOR 081150Z 00005KT M02/M02 A303 RMK A01 T10151022  RH  096%=      5-min Rain = 0
KNOR 081155Z 01005KT M02/M02 A303 RMK A01 T10151021  RH  096%=      5-min Rain = 0
KNOR 081200Z 00004KT M02/M02 A303 RMK A01 T10151021  RH  096%=      5-min Rain = 0
KNOR 081205Z 36004KT M02/M02 A303 RMK A01 T10151021  RH  096%=      5-min Rain = 0
KNOR 081210Z 36005KT M01/M02 A303 RMK A01 T10141021  RH  096%=      5-min Rain = 0
KNOR 081215Z 36004KT M01/M02 A303 RMK A01 T10141021  RH  096%=      5-min Rain = 0
KNOR 081220Z 35003KT M01/M02 A3031 RMK A01 T10141021  RH  096%=      5-min Rain = 0
KNOR 081225Z 35004KT M01/M02 A3031 RMK A01 T10141020  RH  096%=      5-min Rain = 0
KNOR 081230Z 35004KT M01/M02 A3031 RMK A01 T10141020  RH  096%=      5-min Rain = 0
KNOR 081235Z 35004KT M01/M02 A3031 RMK A01 T10141021  RH  096%=      5-min Rain = 0
KNOR 081240Z 35004KT M01/M02 A3031 RMK A01 T10141021  RH  097%=      5-min Rain = 0
KNOR 081245Z 35004KT M01/M02 A3031 RMK A01 T10141021  RH  097%=      5-min Rain = 0
KNOR 081250Z 35004KT M01/M02 A3031 RMK A01 T10141021  RH  097%=      5-min Rain = 0
KNOR 081255Z 35004KT M01/M02 A3031 RMK A01 T10141021  RH  097%=      5-min Rain = 0
KNOR 081300Z 36004KT M01/M02 A3032 RMK A01 T10141021  RH  097%=      5-min Rain = 0
KNOR 081305Z 00004KT M01/M02 A3032 RMK A01 T10141020  RH  097%=      5-min Rain = 0
KNOR 081310Z 00004KT M01/M02 A3032 RMK A01 T10141020  RH  097%=      5-min Rain = 0
KNOR 081315Z 01005KT M01/M02 A3032 RMK A01 T10141021  RH  097%=      5-min Rain = 0
KNOR 081320Z 01005KT M01/M02 A3032 RMK A01 T10141021  RH  097%=      5-min Rain = 0
KNOR 081325Z 02004KT M01/M02 A3033 RMK A01 T10141021  RH  097%=      5-min Rain = 0
KNOR 081330Z 01004KT M01/M02 A3033 RMK A01 T10141021  RH  097%=      5-min Rain = 0
KNOR 081335Z 01004KT M02/M02 A3033 RMK A01 T10151021  RH  097%=      5-min Rain = 0
KNOR 081340Z 01004KT M02/M02 A3033 RMK A01 T10151021  RH  097%=      5-min Rain = 0
KNOR 081345Z 02004KT M02/M02 A3033 RMK A01 T10151021  RH  097%=      5-min Rain = 0
KNOR 081350Z 02004KT M02/M02 A3033 RMK A01 T10151021  RH  097%=      5-min Rain = 0
KNOR 081355Z 02003KT M02/M02 A3033 RMK A01 T10151021  RH  097%=      5-min Rain = 0
KNOR 081400Z 02003KT M02/M02 A3033 RMK A01 T10151021  RH  097%=      5-min Rain = 0
KNOR 081405Z 02003KT M02/M02 A3033 RMK A01 T10151021  RH  097%=      5-min Rain = 0
KNOR 081410Z 03003KT M01/M02 A3033 RMK A01 T10141021  RH  097%=      5-min Rain = 0
KNOR 081415Z 03003KT M01/M02 A3033 RMK A01 T10141020  RH  097%=      5-min Rain = 0
KNOR 081420Z 03003KT M01/M02 A3033 RMK A01 T10141020  RH  097%=      5-min Rain = 0
KNOR 081425Z 03003KT M01/M02 A3033 RMK A01 T10141020  RH  097%=      5-min Rain = 0
KNOR 081430Z 03003KT M01/M02 A3033 RMK A01 T10141020  RH  097%=      5-min Rain = 0
KNOR 081435Z 03003KT M01/M02 A3033 RMK A01 T10131019  RH  097%=      5-min Rain = 0
KNOR 081440Z 03003KT M01/M02 A3033 RMK A01 T10131019  RH  097%=      5-min Rain = 0
KNOR 081445Z 02003KT M01/M02 A3033 RMK A01 T10121019  RH  097%=      5-min Rain = 0
KNOR 081450Z 01003KT M01/M02 A3034 RMK A01 T10121018  RH  097%=      5-min Rain = 0
KNOR 081455Z 00002KT M01/M02 A3034 RMK A01 T10111017  RH  097%=      5-min Rain = 0
KNOR 081500Z 01003KT M01/M02 A3034 RMK A01 T10101016  RH  097%=      5-min Rain = 0
KNOR 081505Z 00002KT M01/M02 A3034 RMK A01 T10101016  RH  097%=      5-min Rain = 0
KNOR 081510Z 35003KT M01/M02 A3034 RMK A01 T10091015  RH  097%=      5-min Rain = 0
KNOR 081515Z 34003KT M01/M02 A3034 RMK A01 T10101016  RH  097%=      5-min Rain = 0
KNOR 081520Z 34002KT M01/M02 A3034 RMK A01 T10101016  RH  097%=      5-min Rain = 0
KNOR 081525Z 34002KT M01/M02 A3034 RMK A01 T10101016  RH  097%=      5-min Rain = 0
KNOR 081530Z 34002KT M01/M02 A3035 RMK A01 T10091015  RH  097%=      5-min Rain = 0
KNOR 081535Z 34002KT M01/M02 A3035 RMK A01 T10101016  RH  097%=      5-min Rain = 0
KNOR 081540Z 33002KT M01/M02 A3035 RMK A01 T10101016  RH  097%=      5-min Rain = 0
KNOR 081545Z 32002KT M01/M02 A3035 RMK A01 T10101016  RH  097%=      5-min Rain = 0
KNOR 081550Z 31002KT M01/M02 A3036 RMK A01 T10101016  RH  097%=      5-min Rain = 0
KNOR 081555Z 31002KT M01/M02 A3036 RMK A01 T10101016  RH  097%=      5-min Rain = 0
KNOR 081600Z 30002KT M01/M02 A3036 RMK A01 T10101017  RH  097%=      5-min Rain = 0
KNOR 081605Z 30003KT M01/M02 A3036 RMK A01 T10091015  RH  097%=      5-min Rain = 0
KNOR 081610Z 30003KT M01/M02 A3036 RMK A01 T10091016  RH  097%=      5-min Rain = 0
KNOR 081615Z 30003KT M01/M02 A3036 RMK A01 T10101016  RH  096%=      5-min Rain = 0
KNOR 081620Z 30003KT M01/M02 A3036 RMK A01 T10101016  RH  096%=      5-min Rain = 0
KNOR 081625Z 29003KT M01/M02 A3036 RMK A01 T10091016  RH  096%=      5-min Rain = 0
KNOR 081630Z 29003KT M01/M02 A3037 RMK A01 T10091016  RH  096%=      5-min Rain = 0
KNOR 081635Z 28004KT M01/M02 A3037 RMK A01 T10081016  RH  096%=      5-min Rain = 0
KNOR 081640Z 29004KT M01/M02 A3037 RMK A01 T10081016  RH  096%=      5-min Rain = 0
KNOR 081645Z 29003KT M01/M02 A3037 RMK A01 T10081015  RH  096%=      5-min Rain = 0
KNOR 081650Z 29003KT M01/M01 A3037 RMK A01 T10061014  RH  096%=      5-min Rain = 0
KNOR 081655Z 29003KT M01/M01 A3036 RMK A01 T10061014  RH  096%=      5-min Rain = 0
KNOR 081700Z 29003KT M01/M01 A3036 RMK A01 T10061013  RH  096%=      5-min Rain = 0
KNOR 081705Z 29003KT M01/M01 A3036 RMK A01 T10051013  RH  095%=      5-min Rain = 0
KNOR 081710Z 29004KT M00/M01 A3036 RMK A01 T10041012  RH  095%=      5-min Rain = 0
KNOR 081715Z 29003KT M00/M01 A3036 RMK A01 T10041012  RH  095%=      5-min Rain = 0
KNOR 081720Z 28003KT M00/M01 A3036 RMK A01 T10031011  RH  095%=      5-min Rain = 0
KNOR 081725Z 28003KT M00/M01 A3036 RMK A01 T10031011  RH  095%=      5-min Rain = 0
KNOR 081730Z 29003KT M00/M01 A3036 RMK A01 T10021011  RH  095%=      5-min Rain = 0
KNOR 081735Z 29003KT M00/M01 A3036 RMK A01 T10021010  RH  095%=      5-min Rain = 0
KNOR 081740Z 29003KT 00/01 A3035 RMK A01 T00-000-9  RH  095%=      5-min Rain = 0
KNOR 081745Z 29003KT 00/01 A3035 RMK A01 T00-000-9  RH  095%=      5-min Rain = 0
KNOR 081750Z 30004KT 00/01 A3035 RMK A01 T000000-9  RH  095%=      5-min Rain = 0
KNOR 081755Z 30004KT M00/M01 A3035 RMK A01 T10011010  RH  094%=      5-min Rain = 0
KNOR 081800Z 30005KT 00/01 A3035 RMK A01 T00-00-10  RH  094%=      5-min Rain = 0
KNOR 081805Z 30005KT 00/01 A3035 RMK A01 T00000-11  RH  093%=      5-min Rain = 0
KNOR 081810Z 30004KT 00/M01 A3034 RMK A01 T00021009  RH  093%=      5-min Rain = 0.01
KNOR 081815Z 31006KT 00/M01 A3034 RMK A01 T00021010  RH  093%=      5-min Rain = 0.01
KNOR 081820Z 31006KT 00/M01 A3033 RMK A01 T00021010  RH  093%=      5-min Rain = 0.01
KNOR 081825Z 31006KT 00/M01 A3033 RMK A01 T00021010  RH  093%=      5-min Rain = 0.02
KNOR 081830Z 32005KT 00/M01 A3033 RMK A01 T00021009  RH  093%=      5-min Rain = 0.01
KNOR 081835Z 32006KT 00/M01 A3033 RMK A01 T00021010  RH  093%=      5-min Rain = 0.01
KNOR 081840Z 31007KT 00/M01 A3033 RMK A01 T00021010  RH  093%=      5-min Rain = 0.02
KNOR 081845Z 31007KT 00/M01 A3032 RMK A01 T00021011  RH  092%=      5-min Rain = 0.01
KNOR 081850Z 31006KT 00/M01 A3032 RMK A01 T00031010  RH  092%=      5-min Rain = 0.01
KNOR 081855Z 31007KT 00/M01 A3032 RMK A01 T00031011  RH  091%=      5-min Rain = 0.01
KNOR 081900Z 32006KT 00/M01 A3032 RMK A01 T00031013  RH  090%=      5-min Rain = 0.02
KNOR 081905Z 32006KT 01/M01 A3031 RMK A01 T00051011  RH  090%=      5-min Rain = 0.02
KNOR 081910Z 31006KT 01/M01 A3031 RMK A01 T00061012  RH  089%=      5-min Rain = 0.01
KNOR 081915Z 32006KT 01/M01 A3031 RMK A01 T00061012  RH  088%=      5-min Rain = 0.02
KNOR 081920Z 32007KT 01/M02 A303 RMK A01 T00061015  RH  087%=      5-min Rain = 0.02
KNOR 081925Z 32008KT 01/M02 A303 RMK A01 T00061018  RH  085%=      5-min Rain = 0.02
KNOR 081930Z 31007KT 01/M02 A303 RMK A01 T00071019  RH  084%=      5-min Rain = 0.01
KNOR 081935Z 32006KT 01/M02 A303 RMK A01 T00081020  RH  082%=      5-min Rain = 0.01
KNOR 081940Z 32006KT 01/M02 A303 RMK A01 T00081019  RH  083%=      5-min Rain = 0.02
KNOR 081945Z 32006KT 01/M02 A3029 RMK A01 T00081021  RH  082%=      5-min Rain = 0.01
KNOR 081950Z 33006KT 01/M02 A3029 RMK A01 T00091019  RH  082%=      5-min Rain = 0.01
KNOR 081955Z 33006KT 01/M02 A3029 RMK A01 T00091021  RH  081%=      5-min Rain = 0.01
KNOR 082000Z 31006KT 01/M03 A3029 RMK A01 T00091025  RH  079%=      5-min Rain = 0.01
KNOR 082005Z 32006KT 01/M03 A3029 RMK A01 T00091026  RH  078%=      5-min Rain = 0.01
KNOR 082010Z 31007KT 01/M03 A3029 RMK A01 T00091030  RH  076%=      5-min Rain = 0.01
KNOR 082015Z 31007KT 01/M03 A3028 RMK A01 T00091029  RH  076%=      5-min Rain = 0.01
KNOR 082020Z 31007KT 01/M03 A3029 RMK A01 T00101028  RH  076%=      5-min Rain = 0.01
KNOR 082025Z 31006KT 01/M03 A3028 RMK A01 T00111028  RH  076%=      5-min Rain = 0.01
KNOR 082030Z 31007KT 01/M03 A3028 RMK A01 T00121027  RH  077%=      5-min Rain = 0.01
KNOR 082035Z 31007KT 01/M03 A3028 RMK A01 T00121029  RH  075%=      5-min Rain = 0
KNOR 082040Z 30006KT 01/M03 A3028 RMK A01 T00131025  RH  077%=      5-min Rain = 0.01
KNOR 082045Z 31006KT 01/M02 A3028 RMK A01 T00131023  RH  078%=      5-min Rain = 0
KNOR 082050Z 31007KT 01/M03 A3028 RMK A01 T00121025  RH  077%=      5-min Rain = 0.01
KNOR 082055Z 31007KT 01/M02 A3028 RMK A01 T00131024  RH  077%=      5-min Rain = 0
KNOR 082100Z 31006KT 01/M03 A3028 RMK A01 T00141026  RH  076%=      5-min Rain = 0
KNOR 082105Z 31006KT 02/M03 A3028 RMK A01 T00151027  RH  074%=      5-min Rain = 0
KNOR 082110Z 30006KT 02/M03 A3028 RMK A01 T00161026  RH  074%=      5-min Rain = 0
KNOR 082115Z 31005KT 02/M03 A3028 RMK A01 T00171025  RH  075%=      5-min Rain = 0
KNOR 082120Z 30006KT 02/M03 A3027 RMK A01 T00171026  RH  074%=      5-min Rain = 0
KNOR 082125Z 30006KT 02/M03 A3027 RMK A01 T00171026  RH  074%=      5-min Rain = 0
KNOR 082130Z 30005KT 02/M03 A3027 RMK A01 T00181025  RH  074%=      5-min Rain = 0
KNOR 082135Z 31006KT 02/M02 A3027 RMK A01 T00181024  RH  074%=      5-min Rain = 0
KNOR 082140Z 30006KT 02/M03 A3027 RMK A01 T00181026  RH  073%=      5-min Rain = 0
KNOR 082145Z 30006KT 02/M03 A3027 RMK A01 T00191027  RH  073%=      5-min Rain = 0
KNOR 082150Z 30005KT 02/M02 A3027 RMK A01 T00201024  RH  073%=      5-min Rain = 0
KNOR 082155Z 29005KT 02/M02 A3027 RMK A01 T00211022  RH  074%=      5-min Rain = 0
KNOR 082200Z 29005KT 02/M02 A3027 RMK A01 T00211024  RH  073%=      5-min Rain = 0
KNOR 082205Z 29006KT 02/M02 A3027 RMK A01 T00211023  RH  073%=      5-min Rain = 0
KNOR 082210Z 29006KT 02/M02 A3027 RMK A01 T00211024  RH  073%=      5-min Rain = 0
KNOR 082215Z 29006KT 02/M02 A3027 RMK A01 T00221024  RH  073%=      5-min Rain = 0
KNOR 082220Z 28005KT 03/M02 A3027 RMK A01 T00261024  RH  070%=      5-min Rain = 0
KNOR 082225Z 29006KT 03/M03 A3027 RMK A01 T00271026  RH  069%=      5-min Rain = 0
KNOR 082230Z 28005KT 03/M02 A3027 RMK A01 T00281022  RH  070%=      5-min Rain = 0
KNOR 082235Z 28005KT 03/M02 A3027 RMK A01 T00281023  RH  070%=      5-min Rain = 0
KNOR 082240Z 26004KT 03/M02 A3027 RMK A01 T00281023  RH  070%=      5-min Rain = 0
KNOR 082245Z 27004KT 03/M02 A3027 RMK A01 T00281022  RH  071%=      5-min Rain = 0
KNOR 082250Z 26004KT 03/M02 A3027 RMK A01 T00271021  RH  071%=      5-min Rain = 0
KNOR 082255Z 26004KT 03/M02 A3027 RMK A01 T00261021  RH  072%=      5-min Rain = 0
KNOR 082300Z 26004KT 03/M02 A3027 RMK A01 T00261019  RH  073%=      5-min Rain = 0
KNOR 082305Z 25004KT 02/M02 A3027 RMK A01 T00241018  RH  074%=      5-min Rain = 0
KNOR 082310Z 26004KT 02/M02 A3027 RMK A01 T00221019  RH  075%=      5-min Rain = 0
KNOR 082315Z 26004KT 02/M02 A3026 RMK A01 T00191019  RH  077%=      5-min Rain = 0
KNOR 082320Z 26005KT 02/M02 A3026 RMK A01 T00161020  RH  078%=      5-min Rain = 0
KNOR 082325Z 26005KT 01/M02 A3026 RMK A01 T00131020  RH  080%=      5-min Rain = 0
KNOR 082330Z 26005KT 01/M02 A3026 RMK A01 T00101021  RH  081%=      5-min Rain = 0
KNOR 082335Z 26006KT 01/M02 A3027 RMK A01 T00081021  RH  082%=      5-min Rain = 0
KNOR 082340Z 26006KT 01/M02 A3027 RMK A01 T00071021  RH  083%=      5-min Rain = 0
KNOR 082345Z 26006KT 01/M02 A3027 RMK A01 T00061022  RH  082%=      5-min Rain = 0
KNOR 082350Z 26006KT 01/M02 A3027 RMK A01 T00051023  RH  083%=      5-min Rain = 0
KNOR 082355Z 25006KT 00/M02 A3027 RMK A01 T00041023  RH  083%=      5-min Rain = 0
KNOR 090000Z 25006KT 00/M02 A3027 RMK A01 T00041024  RH  083%=      5-min Rain = 0
KNOR 090005Z 25005KT 00/M03 A3027 RMK A01 T00021025  RH  083%=      5-min Rain = 0
KNOR 090010Z 25005KT 00/M03 A3027 RMK A01 T00011025  RH  084%=      5-min Rain = 0
KNOR 090015Z 25005KT 00/03 A3027 RMK A01 T00-00-26  RH  084%=      5-min Rain = 0
KNOR 090020Z 25005KT M00/M03 A3027 RMK A01 T10021027  RH  084%=      5-min Rain = 0
KNOR 090025Z 26004KT M00/M03 A3027 RMK A01 T10021027  RH  084%=      5-min Rain = 0
KNOR 090030Z 25004KT M00/M03 A3027 RMK A01 T10021028  RH  084%=      5-min Rain = 0
KNOR 090035Z 25004KT M00/M03 A3027 RMK A01 T10031028  RH  084%=      5-min Rain = 0
KNOR 090040Z 24005KT M00/M03 A3027 RMK A01 T10041028  RH  085%=      5-min Rain = 0
KNOR 090045Z 24005KT M00/M03 A3027 RMK A01 T10041027  RH  085%=      5-min Rain = 0
KNOR 090050Z 24005KT M01/M03 A3028 RMK A01 T10051027  RH  086%=      5-min Rain = 0
KNOR 090055Z 24005KT M01/M03 A3028 RMK A01 T10061027  RH  087%=      5-min Rain = 0
KNOR 090100Z 24005KT M01/M03 A3028 RMK A01 T10081028  RH  087%=      5-min Rain = 0
KNOR 090105Z 24005KT M01/M03 A3028 RMK A01 T10081028  RH  088%=      5-min Rain = 0
KNOR 090110Z 24005KT M01/M03 A3028 RMK A01 T10081028  RH  087%=      5-min Rain = 0
KNOR 090115Z 25005KT M01/M03 A3028 RMK A01 T10091029  RH  087%=      5-min Rain = 0
KNOR 090120Z 24005KT M01/M03 A3029 RMK A01 T10101029  RH  088%=      5-min Rain = 0
KNOR 090125Z 24005KT M01/M03 A3029 RMK A01 T10091028  RH  088%=      5-min Rain = 0
KNOR 090130Z 24005KT M01/M03 A3029 RMK A01 T10101029  RH  088%=      5-min Rain = 0
KNOR 090135Z 24004KT M01/M03 A3029 RMK A01 T10111029  RH  089%=      5-min Rain = 0
KNOR 090140Z 25004KT M01/M03 A3029 RMK A01 T10111029  RH  089%=      5-min Rain = 0
KNOR 090145Z 25004KT M01/M03 A3029 RMK A01 T10121030  RH  088%=      5-min Rain = 0
KNOR 090150Z 25004KT M01/M03 A3029 RMK A01 T10131031  RH  089%=      5-min Rain = 0
KNOR 090155Z 26004KT M01/M03 A3029 RMK A01 T10121029  RH  089%=      5-min Rain = 0
KNOR 090200Z 26004KT M01/M03 A3029 RMK A01 T10111029  RH  089%=      5-min Rain = 0
KNOR 090205Z 26003KT M01/M03 A303 RMK A01 T10121030  RH  089%=      5-min Rain = 0
KNOR 090210Z 26004KT M01/M03 A303 RMK A01 T10101028  RH  088%=      5-min Rain = 0
KNOR 090215Z 26005KT M01/M03 A303 RMK A01 T10121031  RH  088%=      5-min Rain = 0
KNOR 090220Z 26005KT M01/M03 A303 RMK A01 T10141033  RH  088%=      5-min Rain = 0
KNOR 090225Z 26004KT M02/M03 A303 RMK A01 T10161034  RH  089%=      5-min Rain = 0
KNOR 090230Z 27004KT M02/M03 A303 RMK A01 T10181034  RH  090%=      5-min Rain = 0
KNOR 090235Z 27004KT M02/M03 A303 RMK A01 T10181034  RH  090%=      5-min Rain = 0
KNOR 090240Z 27004KT M02/M04 A303 RMK A01 T10191035  RH  090%=      5-min Rain = 0
KNOR 090245Z 26004KT M02/M04 A303 RMK A01 T10201035  RH  091%=      5-min Rain = 0
KNOR 090250Z 27004KT M02/M03 A303 RMK A01 T10201034  RH  091%=      5-min Rain = 0
KNOR 090255Z 27004KT M02/M04 A303 RMK A01 T10211035  RH  091%=      5-min Rain = 0
KNOR 090300Z 26004KT M02/M03 A303 RMK A01 T10211034  RH  092%=      5-min Rain = 0
KNOR 090305Z 26004KT M02/M04 A303 RMK A01 T10221035  RH  092%=      5-min Rain = 0
KNOR 090310Z 26004KT M02/M04 A303 RMK A01 T10221035  RH  092%=      5-min Rain = 0
KNOR 090315Z 26004KT M02/M04 A303 RMK A01 T10221035  RH  092%=      5-min Rain = 0
KNOR 090320Z 25004KT M02/M04 A303 RMK A01 T10221035  RH  092%=      5-min Rain = 0
KNOR 090325Z 25005KT M02/M04 A303 RMK A01 T10231036  RH  092%=      5-min Rain = 0
KNOR 090330Z 25004KT M02/M04 A303 RMK A01 T10241037  RH  092%=      5-min Rain = 0
KNOR 090335Z 26004KT M03/M04 A303 RMK A01 T10251037  RH  092%=      5-min Rain = 0
KNOR 090340Z 26004KT M03/M04 A303 RMK A01 T10251037  RH  092%=      5-min Rain = 0
KNOR 090345Z 26004KT M02/M04 A303 RMK A01 T10241036  RH  093%=      5-min Rain = 0
KNOR 090350Z 26004KT M03/M04 A303 RMK A01 T10251037  RH  092%=      5-min Rain = 0
KNOR 090355Z 26005KT M03/M04 A303 RMK A01 T10261038  RH  092%=      5-min Rain = 0
KNOR 090400Z 26005KT M03/M04 A303 RMK A01 T10261038  RH  092%=      5-min Rain = 0
KNOR 090405Z 25005KT M03/M04 A303 RMK A01 T10271039  RH  092%=      5-min Rain = 0
KNOR 090410Z 25005KT M03/M04 A3031 RMK A01 T10281040  RH  092%=      5-min Rain = 0
KNOR 090415Z 25004KT M03/M04 A3031 RMK A01 T10281041  RH  092%=      5-min Rain = 0
KNOR 090420Z 25004KT M03/M04 A3031 RMK A01 T10281041  RH  092%=      5-min Rain = 0
KNOR 090425Z 25004KT M03/M04 A3031 RMK A01 T10271039  RH  092%=      5-min Rain = 0
KNOR 090430Z 25004KT M03/M04 A3031 RMK A01 T10251038  RH  092%=      5-min Rain = 0
KNOR 090435Z 25004KT M03/M04 A3031 RMK A01 T10261039  RH  092%=      5-min Rain = 0
KNOR 090440Z 24004KT M03/M04 A3031 RMK A01 T10271040  RH  092%=      5-min Rain = 0
KNOR 090445Z 24004KT M03/M04 A3031 RMK A01 T10281041  RH  092%=      5-min Rain = 0
KNOR 090450Z 24004KT M03/M04 A3032 RMK A01 T10301042  RH  092%=      5-min Rain = 0
KNOR 090455Z 24005KT M03/M04 A3032 RMK A01 T10311043  RH  092%=      5-min Rain = 0
KNOR 090500Z 24004KT M03/M05 A3032 RMK A01 T10321045  RH  092%=      5-min Rain = 0
KNOR 090505Z 24004KT M03/M04 A3032 RMK A01 T10311044  RH  092%=      5-min Rain = 0
KNOR 090510Z 25004KT M03/M04 A3032 RMK A01 T10311043  RH  092%=      5-min Rain = 0
KNOR 090515Z 25004KT M03/M04 A3032 RMK A01 T10311044  RH  092%=      5-min Rain = 0
KNOR 090520Z 25004KT M03/M05 A3033 RMK A01 T10321046  RH  091%=      5-min Rain = 0
KNOR 090525Z 25004KT M03/M05 A3033 RMK A01 T10341048  RH  091%=      5-min Rain = 0
KNOR 090530Z 25005KT M04/M05 A3033 RMK A01 T10351049  RH  091%=      5-min Rain = 0
KNOR 090535Z 25005KT M04/M05 A3033 RMK A01 T10381052  RH  091%=      5-min Rain = 0
KNOR 090540Z 26006KT M04/M05 A3033 RMK A01 T10411054  RH  091%=      5-min Rain = 0
KNOR 090545Z 26005KT M04/M06 A3033 RMK A01 T10421055  RH  092%=      5-min Rain = 0
KNOR 090550Z 27004KT M04/M06 A3033 RMK A01 T10431055  RH  092%=      5-min Rain = 0
KNOR 090555Z 26005KT M04/M06 A3033 RMK A01 T10441057  RH  092%=      5-min Rain = 0

Page generated in 0.0149 seconds.